Portada
METAR-TAF:

METAR-TAF

Aeroports :

Base Aèria de Morón

Morón de la Frontera, Espanya

latitud: 37-09N, longitud: 005-37W, altitud: 87 m

Observació

L'informe es va fer fa 21 minuts, a les 22:00 UTC
Vent 3 kt del Sud-Oest, variant entre Sud i Oest
Temperatura 13°C
Humitat 72%
Pressió 1015 hPa
Visibilitat 10 km o més
Escasses núvols a una alçada de 6000 ft

METAR: LEMO 212200Z 22003KT 180V260 9999 FEW060 13/08 Q1015 NOSIG

Hora: 00:21 (22:21 UTC)

Pronòstic

L'informe es va fer fa 2 hores i 21 minuts, a les 20:00 UTC
Pronòstic vàlid del 21 a les 21 UTC al 22 a les 06 UTC
Vent 3 kt amb direcció variable
Visibilitat 10 km o més
sense núvols per sota de 1500 mi sense presència de cumulonimbus.

TAF: LEMO 212000Z 2121/2206 VRB03KT CAVOK

Observacions i pronòstics meteorològics de més de 4000 aeroports (METAR i TAF).

Les estacions disponibles són els punts grocs i vermells al mapa.

Posi el ratolí al punt desitjat per veure el nom de l'estació.

Feu clic per veure les observacions i els pronòstics meteorològics.

Per canviar el mapa: feu clic els botons verds amb una creu de color negre per apropar; al botó verd amb un guió per allunyar la imatge; o en les fletxes verdes per a mapes adjacents.


METAR-TAF: